TAF KTVL
KTVL 090520Z 0906/1006 20010G18KT P6SM VCSH BKN050 OVC100 WS020/22035KT FM090800 19010KT 4SM -RASN BKN030 OVC050 WS020/23040KT FM091100 19004KT 1/2SM SN BKN005 OVC010 FM091700 VRB04KT 3SM -SHSN BKN015 OVC025 FM092100 03005KT P6SM VCSH BKN035 FM100000 18003KT P6SM SCT035=
METAR KTVL
WC KTVL
WS KTVL
WV KTVL